createdAt,value
2023-01-13T00:01:45.540Z,78.71
2023-01-13T00:04:14.629Z,78.67
2023-01-13T00:06:43.960Z,78.50
2023-01-13T00:09:13.359Z,78.72
2023-01-13T00:11:42.517Z,78.51
2023-01-13T00:14:11.820Z,78.64
2023-01-13T00:16:42.240Z,78.70
2023-01-13T00:19:11.561Z,78.60
2023-01-13T00:21:40.878Z,78.71
2023-01-13T00:24:10.480Z,78.76
2023-01-13T00:26:39.546Z,78.65
2023-01-13T00:29:09.378Z,78.76
2023-01-13T00:31:38.416Z,78.74
2023-01-13T00:34:09.387Z,78.74
2023-01-13T00:36:38.510Z,78.70
2023-01-13T00:39:07.836Z,78.72
2023-01-13T00:41:50.824Z,78.58
2023-01-13T00:44:20.449Z,78.41
2023-01-13T00:46:49.544Z,78.54
2023-01-13T00:49:20.329Z,78.46
2023-01-13T00:51:49.370Z,78.67
2023-01-13T00:54:18.773Z,78.63
2023-01-13T00:56:47.796Z,78.75
2023-01-13T00:59:17.174Z,78.94
2023-01-13T01:01:46.378Z,78.65
2023-01-13T01:04:15.683Z,78.76
2023-01-13T01:06:46.074Z,78.82
2023-01-13T01:09:17.112Z,78.96
2023-01-13T01:11:46.889Z,79.00
2023-01-13T01:14:16.523Z,79.04
2023-01-13T01:16:46.832Z,78.85
2023-01-13T01:19:16.236Z,78.98
2023-01-13T01:21:47.088Z,79.29
2023-01-13T01:24:17.224Z,79.24
2023-01-13T01:26:46.285Z,79.26
2023-01-13T01:29:16.616Z,78.83
2023-01-13T01:31:46.195Z,78.96
2023-01-13T01:34:15.423Z,78.97
2023-01-13T01:36:45.884Z,79.27
2023-01-13T01:39:15.445Z,79.21
2023-01-13T01:42:04.670Z,79.34
2023-01-13T01:44:51.600Z,79.39
2023-01-13T01:47:21.315Z,79.36
2023-01-13T01:49:51.705Z,79.45
2023-01-13T01:52:26.448Z,79.37
2023-01-13T01:54:59.853Z,79.30
2023-01-13T01:57:37.052Z,79.16
2023-01-13T02:00:08.334Z,79.37
2023-01-13T02:02:46.665Z,79.29
2023-01-13T02:05:17.047Z,79.18
2023-01-13T02:07:50.767Z,79.25
2023-01-13T02:10:21.615Z,79.35
2023-01-13T02:12:51.877Z,79.26
2023-01-13T02:15:24.367Z,79.38
2023-01-13T02:18:17.470Z,79.68
2023-01-13T02:21:36.702Z,79.94
2023-01-13T02:25:03.038Z,79.74
2023-01-13T02:27:59.337Z,79.83
2023-01-13T02:31:00.910Z,79.86
2023-01-13T02:33:43.253Z,79.75
2023-01-13T02:36:20.865Z,79.95
2023-01-13T02:38:59.365Z,79.84
2023-01-13T02:41:52.996Z,79.78
2023-01-13T02:44:29.091Z,79.89
2023-01-13T02:47:05.409Z,79.67
2023-01-13T02:49:39.006Z,79.85
2023-01-13T02:52:13.591Z,79.90
2023-01-13T02:54:48.977Z,79.94
2023-01-13T02:57:21.915Z,80.18
2023-01-13T02:59:54.314Z,80.20
2023-01-13T03:02:26.719Z,80.22
2023-01-13T03:04:57.986Z,80.48
2023-01-13T03:07:59.169Z,80.52
2023-01-13T03:10:47.558Z,80.08
2023-01-13T03:13:26.431Z,80.36
2023-01-13T03:16:02.002Z,80.33
2023-01-13T03:18:44.317Z,80.44
2023-01-13T03:21:21.435Z,80.17
2023-01-13T03:23:54.984Z,80.33
2023-01-13T03:26:29.818Z,80.58
2023-01-13T03:29:07.835Z,80.36
2023-01-13T03:31:44.202Z,80.45
2023-01-13T03:34:19.660Z,80.71
2023-01-13T03:36:54.240Z,80.30
2023-01-13T03:39:31.201Z,80.36
2023-01-13T03:42:05.720Z,80.45
2023-01-13T03:44:38.606Z,80.38
2023-01-13T03:47:16.149Z,80.42
2023-01-13T03:49:54.414Z,80.33
2023-01-13T03:52:30.573Z,80.59
2023-01-13T03:55:05.382Z,80.58
2023-01-13T03:57:39.898Z,80.63
2023-01-13T04:00:13.525Z,80.78
2023-01-13T04:02:52.527Z,80.69
2023-01-13T04:05:23.662Z,80.52
2023-01-13T04:08:01.638Z,80.49
2023-01-13T04:10:37.125Z,80.70
2023-01-13T04:13:11.633Z,80.69
2023-01-13T04:15:43.619Z,80.70
2023-01-13T04:18:19.275Z,80.92
2023-01-13T04:20:52.117Z,80.68
2023-01-13T04:23:22.846Z,80.63
2023-01-13T04:25:52.393Z,80.82
2023-01-13T04:28:22.332Z,80.70
2023-01-13T04:30:51.209Z,80.84
2023-01-13T04:33:22.161Z,80.87
2023-01-13T04:35:53.737Z,80.85
2023-01-13T04:38:23.660Z,81.18
2023-01-13T04:40:52.550Z,80.96
2023-01-13T04:43:21.845Z,81.13
2023-01-13T04:45:51.539Z,80.87
2023-01-13T04:48:20.884Z,81.14
2023-01-13T04:50:51.469Z,81.16
2023-01-13T04:53:22.137Z,80.92
2023-01-13T04:55:52.260Z,81.00
2023-01-13T04:58:22.737Z,80.94
2023-01-13T05:00:52.522Z,81.17
2023-01-13T05:03:21.972Z,81.43
2023-01-13T05:05:54.418Z,81.73
2023-01-13T05:08:23.805Z,81.48
2023-01-13T05:10:52.812Z,81.19
2023-01-13T05:13:39.733Z,81.50
2023-01-13T05:16:37.658Z,81.71
2023-01-13T05:19:07.098Z,81.58
2023-01-13T05:21:54.691Z,81.13
2023-01-13T05:24:41.684Z,81.25
2023-01-13T05:27:11.193Z,81.18
2023-01-13T05:29:40.243Z,81.69
2023-01-13T05:32:09.262Z,81.49
2023-01-13T05:34:38.516Z,81.46
2023-01-13T05:37:11.206Z,81.35
2023-01-13T05:39:54.535Z,81.50
2023-01-13T05:42:41.193Z,81.58
2023-01-13T05:45:12.217Z,81.43
2023-01-13T05:47:41.592Z,81.68
2023-01-13T05:50:12.196Z,81.64
2023-01-13T05:52:43.561Z,81.71
2023-01-13T05:55:14.710Z,81.64
2023-01-13T05:57:43.716Z,81.72
2023-01-13T06:00:14.648Z,81.66
2023-01-13T06:02:43.987Z,81.83
2023-01-13T06:05:13.338Z,81.82
2023-01-13T06:07:43.814Z,81.78
2023-01-13T06:10:13.633Z,82.05
2023-01-13T06:12:42.751Z,82.11
2023-01-13T06:15:12.651Z,82.00
2023-01-13T06:17:41.643Z,81.81
2023-01-13T06:20:12.218Z,82.05
2023-01-13T06:22:45.813Z,81.88
2023-01-13T06:25:22.946Z,81.97
2023-01-13T06:27:53.228Z,81.98
2023-01-13T06:30:22.619Z,82.05
2023-01-13T06:32:54.325Z,82.21
2023-01-13T06:35:29.644Z,82.17
2023-01-13T06:38:04.157Z,82.10
2023-01-13T06:40:33.594Z,82.10
2023-01-13T06:43:17.326Z,82.01
2023-01-13T06:45:50.420Z,82.08
2023-01-13T06:48:23.359Z,82.01
2023-01-13T06:50:52.887Z,82.09
2023-01-13T06:53:23.254Z,82.09
2023-01-13T06:55:52.639Z,81.94
2023-01-13T06:58:21.749Z,82.03
2023-01-13T07:00:51.644Z,82.45
2023-01-13T07:03:21.492Z,82.13
2023-01-13T07:05:55.363Z,81.82
2023-01-13T07:08:26.367Z,81.95
2023-01-13T07:10:55.847Z,81.94
2023-01-13T07:13:42.561Z,82.40
2023-01-13T07:16:12.157Z,82.25
2023-01-13T07:18:41.192Z,82.62
2023-01-13T07:21:13.227Z,82.43
2023-01-13T07:23:43.820Z,82.41
2023-01-13T07:26:13.971Z,82.31
2023-01-13T07:28:43.400Z,82.10
2023-01-13T07:31:17.987Z,82.26
2023-01-13T07:33:47.339Z,82.30
2023-01-13T07:36:17.141Z,82.15
2023-01-13T07:38:47.417Z,82.29
2023-01-13T07:41:34.979Z,82.31
2023-01-13T07:44:06.738Z,82.14
2023-01-13T07:46:36.502Z,82.12
2023-01-13T07:49:05.747Z,82.26
2023-01-13T07:51:36.541Z,82.60
2023-01-13T07:54:07.821Z,82.27
2023-01-13T07:56:37.424Z,82.39
2023-01-13T07:59:06.390Z,82.28
2023-01-13T08:01:36.109Z,82.20
2023-01-13T08:04:05.347Z,82.46
2023-01-13T08:06:34.608Z,82.28
2023-01-13T08:09:05.331Z,82.53
2023-01-13T08:11:34.793Z,82.63
2023-01-13T08:14:04.040Z,82.55
2023-01-13T08:16:34.555Z,82.34
2023-01-13T08:19:03.655Z,82.41
2023-01-13T08:21:32.916Z,82.54
2023-01-13T08:24:02.074Z,82.34
2023-01-13T08:26:32.982Z,82.42
2023-01-13T08:29:02.099Z,82.63
2023-01-13T08:31:31.390Z,82.50
2023-01-13T08:34:00.506Z,82.39
2023-01-13T08:36:29.767Z,82.28
2023-01-13T08:38:58.874Z,82.49
2023-01-13T08:41:44.904Z,82.19
2023-01-13T08:44:15.636Z,81.96
2023-01-13T08:46:45.024Z,81.74
2023-01-13T08:49:14.079Z,82.16
2023-01-13T08:51:43.525Z,82.15
2023-01-13T08:54:12.910Z,82.09
2023-01-13T08:56:43.277Z,82.08
2023-01-13T08:59:16.045Z,81.99
2023-01-13T09:01:46.079Z,82.06
2023-01-13T09:04:20.196Z,81.91
2023-01-13T09:06:50.745Z,82.23
2023-01-13T09:09:20.328Z,82.14
2023-01-13T09:12:09.709Z,82.04
2023-01-13T09:14:41.142Z,82.01
2023-01-13T09:17:12.168Z,82.27
2023-01-13T09:19:41.875Z,82.37
2023-01-13T09:22:15.879Z,82.31
2023-01-13T09:24:45.526Z,82.21
2023-01-13T09:27:16.289Z,81.93
2023-01-13T09:29:46.695Z,81.83
2023-01-13T09:32:16.917Z,82.10
2023-01-13T09:35:00.162Z,82.02
2023-01-13T09:37:30.997Z,82.17
2023-01-13T09:40:00.151Z,82.02
2023-01-13T09:42:58.978Z,81.64
2023-01-13T09:45:33.725Z,81.61
2023-01-13T09:48:09.875Z,81.65
2023-01-13T09:50:56.440Z,81.96
2023-01-13T09:53:30.433Z,81.57
2023-01-13T09:55:59.717Z,81.78
2023-01-13T09:58:29.310Z,81.87
2023-01-13T10:01:17.173Z,81.94
2023-01-13T10:03:49.136Z,81.94
2023-01-13T10:06:22.210Z,82.13
2023-01-13T10:08:52.420Z,81.82
2023-01-13T10:11:41.393Z,81.71
2023-01-13T10:14:18.910Z,81.67
2023-01-13T10:16:56.373Z,81.75
2023-01-13T10:19:31.335Z,81.78
2023-01-13T10:22:36.509Z,81.87
2023-01-13T10:25:31.236Z,81.50
2023-01-13T10:28:09.193Z,81.51
2023-01-13T10:30:40.396Z,81.37
2023-01-13T10:33:15.869Z,81.23
2023-01-13T10:36:00.283Z,81.59
2023-01-13T10:38:32.184Z,81.38
2023-01-13T10:41:03.357Z,81.31
2023-01-13T10:43:33.505Z,81.25
2023-01-13T10:46:06.468Z,80.96
2023-01-13T10:48:42.468Z,80.80
2023-01-13T10:51:23.210Z,80.88
2023-01-13T10:53:58.768Z,81.30
2023-01-13T10:56:30.915Z,80.59
2023-01-13T10:59:23.548Z,81.08
2023-01-13T11:02:03.891Z,81.26
2023-01-13T11:04:38.212Z,80.89
2023-01-13T11:07:21.670Z,80.74
2023-01-13T11:10:12.098Z,80.26
2023-01-13T11:12:50.869Z,80.28
2023-01-13T11:15:24.872Z,79.99
2023-01-13T11:18:00.814Z,80.15
2023-01-13T11:20:37.160Z,80.33
2023-01-13T11:23:16.897Z,80.33
2023-01-13T11:25:50.417Z,79.81
2023-01-13T11:28:50.312Z,79.50
2023-01-13T11:31:24.557Z,79.09
2023-01-13T11:34:00.820Z,79.13
2023-01-13T11:36:39.376Z,78.90
2023-01-13T11:39:22.324Z,79.36
2023-01-13T11:42:12.717Z,78.72
2023-01-13T11:44:47.613Z,78.92
2023-01-13T11:47:22.478Z,78.60
2023-01-13T11:49:52.028Z,78.67
2023-01-13T11:52:30.724Z,78.58
2023-01-13T11:55:15.458Z,79.29
2023-01-13T11:57:56.952Z,79.61
2023-01-13T12:01:00.430Z,79.58
2023-01-13T12:03:35.830Z,78.98
2023-01-13T12:06:21.043Z,79.14
2023-01-13T12:09:05.069Z,78.51
2023-01-13T12:12:00.264Z,78.76
2023-01-13T12:14:39.879Z,78.44
2023-01-13T12:17:21.342Z,78.14
2023-01-13T12:19:52.573Z,77.59
2023-01-13T12:22:27.387Z,78.20
2023-01-13T12:25:07.812Z,78.73
2023-01-13T12:27:47.268Z,78.15
2023-01-13T12:30:26.692Z,78.57
2023-01-13T12:33:01.089Z,78.45
2023-01-13T12:35:40.048Z,78.77
2023-01-13T12:38:19.463Z,78.40
2023-01-13T12:40:57.745Z,77.90
2023-01-13T12:43:44.807Z,78.05
2023-01-13T12:46:53.395Z,78.26
2023-01-13T12:49:25.301Z,78.25
2023-01-13T12:52:24.586Z,78.31
2023-01-13T12:55:15.536Z,78.43
2023-01-13T12:58:27.245Z,78.93
2023-01-13T13:01:01.340Z,78.43
2023-01-13T13:03:35.659Z,78.38
2023-01-13T13:06:19.614Z,78.67
2023-01-13T13:09:03.667Z,78.67
2023-01-13T13:11:59.375Z,78.35
2023-01-13T13:15:07.191Z,78.31
2023-01-13T13:17:43.472Z,78.54
2023-01-13T13:20:53.846Z,78.35
2023-01-13T13:24:01.092Z,78.35
2023-01-13T13:26:38.516Z,78.40
2023-01-13T13:29:39.247Z,78.84
2023-01-13T13:32:47.132Z,78.59
2023-01-13T13:35:32.407Z,78.57
2023-01-13T13:38:34.905Z,78.27
2023-01-13T13:41:29.814Z,78.46
2023-01-13T13:44:21.634Z,78.36
2023-01-13T13:46:51.467Z,78.70
2023-01-13T13:49:22.384Z,78.93
2023-01-13T13:52:00.957Z,78.79
2023-01-13T13:54:30.654Z,78.70
2023-01-13T13:57:01.041Z,78.78
2023-01-13T13:59:33.630Z,79.13
2023-01-13T14:02:04.962Z,79.11
2023-01-13T14:04:41.378Z,78.92
2023-01-13T14:07:21.078Z,79.30
2023-01-13T14:09:53.786Z,79.12
2023-01-13T14:12:25.703Z,79.25
2023-01-13T14:14:57.490Z,76.99
2023-01-13T14:17:29.786Z,76.75
2023-01-13T14:20:07.995Z,76.39
2023-01-13T14:22:40.584Z,76.11
2023-01-13T14:25:29.941Z,75.86
2023-01-13T14:28:04.265Z,76.33
2023-01-13T14:30:35.150Z,76.26
2023-01-13T14:33:06.613Z,76.48
2023-01-13T14:35:35.883Z,76.31
2023-01-13T14:38:06.575Z,76.95
2023-01-13T14:40:46.544Z,76.91
2023-01-13T14:43:19.332Z,76.84
2023-01-13T14:46:00.133Z,77.11
2023-01-13T14:48:35.612Z,77.43
2023-01-13T14:51:06.781Z,77.25
2023-01-13T14:53:43.240Z,77.63
2023-01-13T14:56:44.531Z,77.89
2023-01-13T14:59:36.804Z,78.10
2023-01-13T15:02:38.293Z,78.41
2023-01-13T15:05:49.303Z,77.92
2023-01-13T15:08:28.889Z,77.68
2023-01-13T15:11:03.280Z,77.83
2023-01-13T15:13:45.416Z,78.09
2023-01-13T15:16:24.464Z,78.34
2023-01-13T15:18:54.332Z,78.47
2023-01-13T15:21:24.771Z,78.15
2023-01-13T15:23:53.866Z,77.85
2023-01-13T15:26:27.758Z,78.01
2023-01-13T15:28:58.550Z,78.01
2023-01-13T15:31:29.244Z,78.25
2023-01-13T15:33:58.896Z,78.46
2023-01-13T15:36:31.262Z,78.69
2023-01-13T15:39:02.316Z,78.95
2023-01-13T15:42:02.106Z,79.10
2023-01-13T15:44:48.735Z,79.14
2023-01-13T15:47:18.201Z,79.33
2023-01-13T15:49:48.427Z,79.40
2023-01-13T15:52:22.045Z,79.30
2023-01-13T15:54:55.050Z,79.37
2023-01-13T15:57:27.789Z,79.49
2023-01-13T15:59:58.936Z,79.42
2023-01-13T16:02:31.131Z,79.37
2023-01-13T16:05:00.354Z,79.40
2023-01-13T16:07:29.614Z,79.33
2023-01-13T16:10:01.766Z,79.84
2023-01-13T16:12:38.199Z,79.99
2023-01-13T16:15:10.475Z,79.64
2023-01-13T16:17:41.485Z,79.71
2023-01-13T16:20:14.542Z,79.59
2023-01-13T16:22:46.340Z,79.45
2023-01-13T16:25:19.072Z,78.23
2023-01-13T16:27:51.485Z,78.39
2023-01-13T16:30:26.744Z,78.39
2023-01-13T16:32:56.712Z,77.95
2023-01-13T16:35:26.491Z,77.73
2023-01-13T16:37:58.455Z,77.85
2023-01-13T16:40:31.283Z,77.83
2023-01-13T16:43:03.740Z,77.97
2023-01-13T16:45:33.608Z,78.33
2023-01-13T16:48:03.351Z,78.59
2023-01-13T16:50:37.456Z,78.73
2023-01-13T16:53:09.307Z,78.81
2023-01-13T16:55:39.978Z,78.65
2023-01-13T16:58:18.137Z,78.72
2023-01-13T17:00:48.532Z,78.88
2023-01-13T17:03:18.438Z,79.04
2023-01-13T17:05:48.313Z,79.10
2023-01-13T17:08:19.076Z,79.15
2023-01-13T17:10:49.377Z,78.89
2023-01-13T17:13:20.944Z,78.93
2023-01-13T17:15:50.099Z,79.10
2023-01-13T17:18:19.393Z,78.81
2023-01-13T17:20:48.594Z,78.81
2023-01-13T17:23:18.173Z,78.88
2023-01-13T17:25:47.354Z,78.60
2023-01-13T17:28:16.662Z,78.64
2023-01-13T17:30:47.171Z,78.80
2023-01-13T17:33:16.592Z,78.98
2023-01-13T17:35:46.199Z,78.94
2023-01-13T17:38:15.245Z,78.85
2023-01-13T17:40:44.342Z,79.13
2023-01-13T17:43:13.632Z,79.09
2023-01-13T17:45:43.029Z,78.85
2023-01-13T17:48:13.913Z,79.10
2023-01-13T17:50:48.619Z,79.28
2023-01-13T17:53:18.213Z,79.30
2023-01-13T17:55:51.722Z,79.51
2023-01-13T17:58:21.938Z,79.76
2023-01-13T18:00:51.773Z,79.95
2023-01-13T18:03:23.175Z,80.05
2023-01-13T18:05:52.493Z,80.04
2023-01-13T18:08:23.732Z,79.81
2023-01-13T18:10:54.734Z,79.81
2023-01-13T18:13:24.156Z,79.62
2023-01-13T18:16:03.114Z,79.37
2023-01-13T18:18:35.594Z,79.47
2023-01-13T18:21:23.063Z,79.48
2023-01-13T18:24:10.215Z,79.45
2023-01-13T18:26:56.974Z,79.48
2023-01-13T18:29:26.430Z,79.38
2023-01-13T18:31:55.459Z,79.53
2023-01-13T18:34:26.223Z,79.37
2023-01-13T18:36:56.130Z,79.21
2023-01-13T18:39:25.423Z,79.42
2023-01-13T18:42:12.147Z,79.48
2023-01-13T18:44:43.975Z,79.39
2023-01-13T18:47:13.234Z,79.35
2023-01-13T18:49:43.916Z,79.31
2023-01-13T18:52:14.159Z,79.19
2023-01-13T18:54:43.460Z,79.38
2023-01-13T18:57:14.767Z,79.83
2023-01-13T18:59:47.437Z,79.78
2023-01-13T19:02:18.115Z,79.79
2023-01-13T19:04:49.200Z,79.70
2023-01-13T19:07:23.597Z,79.43
2023-01-13T19:09:55.340Z,79.64
2023-01-13T19:12:27.547Z,79.57
2023-01-13T19:14:58.109Z,79.56
2023-01-13T19:17:31.233Z,79.45
2023-01-13T19:20:02.115Z,79.49
2023-01-13T19:22:36.775Z,79.32
2023-01-13T19:25:08.950Z,79.53
2023-01-13T19:27:40.232Z,79.39
2023-01-13T19:30:15.818Z,79.64
2023-01-13T19:32:47.836Z,79.55
2023-01-13T19:35:19.962Z,79.56
2023-01-13T19:37:49.560Z,79.21
2023-01-13T19:40:19.417Z,79.45
2023-01-13T19:43:05.647Z,79.51
2023-01-13T19:45:36.282Z,79.40
2023-01-13T19:48:08.527Z,79.46
2023-01-13T19:50:40.823Z,79.22
2023-01-13T19:53:15.539Z,79.49
2023-01-13T19:55:48.611Z,79.55
2023-01-13T19:58:18.907Z,79.47
2023-01-13T20:00:49.291Z,79.17
2023-01-13T20:03:23.634Z,79.13
2023-01-13T20:05:58.025Z,79.51
2023-01-13T20:08:27.140Z,79.70
2023-01-13T20:11:16.509Z,79.36
2023-01-13T20:13:45.774Z,79.65
2023-01-13T20:16:15.465Z,79.47
2023-01-13T20:18:44.602Z,79.41
2023-01-13T20:21:15.485Z,79.69
2023-01-13T20:23:46.196Z,79.34
2023-01-13T20:26:16.113Z,79.27
2023-01-13T20:28:45.288Z,79.45
2023-01-13T20:31:16.778Z,79.33
2023-01-13T20:33:51.594Z,79.40
2023-01-13T20:36:31.335Z,79.25
2023-01-13T20:39:01.685Z,78.85
2023-01-13T20:41:49.206Z,79.05
2023-01-13T20:44:18.608Z,79.39
2023-01-13T20:46:47.900Z,79.29
2023-01-13T20:49:19.647Z,79.30
2023-01-13T20:51:50.680Z,79.26
2023-01-13T20:54:20.321Z,79.17
2023-01-13T20:56:49.995Z,79.32
2023-01-13T20:59:20.038Z,79.21
2023-01-13T21:01:49.614Z,79.08
2023-01-13T21:04:18.709Z,79.10
2023-01-13T21:06:49.926Z,79.28
2023-01-13T21:09:19.406Z,79.33
2023-01-13T21:12:05.990Z,79.36
2023-01-13T21:14:53.079Z,79.27
2023-01-13T21:17:54.163Z,79.19
2023-01-13T21:20:23.647Z,79.35
2023-01-13T21:22:54.511Z,79.04
2023-01-13T21:25:25.866Z,79.09
2023-01-13T21:28:04.133Z,79.00
2023-01-13T21:30:34.295Z,79.01
2023-01-13T21:33:05.416Z,79.23
2023-01-13T21:35:34.918Z,79.06
2023-01-13T21:38:06.425Z,78.94
2023-01-13T21:40:37.137Z,79.04
2023-01-13T21:43:23.934Z,79.02
2023-01-13T21:46:10.282Z,78.92
2023-01-13T21:48:39.766Z,78.98
2023-01-13T21:51:08.875Z,79.01
2023-01-13T21:53:40.651Z,78.82
2023-01-13T21:56:10.993Z,79.08
2023-01-13T21:58:40.578Z,78.96
2023-01-13T22:01:11.967Z,79.02
2023-01-13T22:03:59.593Z,79.26
2023-01-13T22:06:28.904Z,79.17
2023-01-13T22:09:01.247Z,79.25
2023-01-13T22:11:31.777Z,79.10
2023-01-13T22:14:07.588Z,79.17
2023-01-13T22:16:39.415Z,79.36
2023-01-13T22:19:10.500Z,79.52
2023-01-13T22:21:40.084Z,79.22
2023-01-13T22:24:11.771Z,79.23
2023-01-13T22:26:40.916Z,79.21
2023-01-13T22:29:10.228Z,79.07
2023-01-13T22:31:40.217Z,78.81
2023-01-13T22:34:12.952Z,78.77
2023-01-13T22:36:41.995Z,78.67
2023-01-13T22:39:12.827Z,78.87
2023-01-13T22:41:42.100Z,78.68
2023-01-13T22:44:11.452Z,78.72
2023-01-13T22:46:40.610Z,78.60
2023-01-13T22:49:09.898Z,78.40
2023-01-13T22:51:39.283Z,78.30
2023-01-13T22:54:08.923Z,78.28
2023-01-13T22:56:39.842Z,78.24
2023-01-13T22:59:12.041Z,78.11
2023-01-13T23:01:42.205Z,78.48
2023-01-13T23:04:13.949Z,78.26
2023-01-13T23:06:43.243Z,78.23
2023-01-13T23:09:12.606Z,77.99
2023-01-13T23:11:43.374Z,78.04
2023-01-13T23:14:13.953Z,77.75
2023-01-13T23:16:43.155Z,78.01
2023-01-13T23:19:13.454Z,78.14
2023-01-13T23:21:42.671Z,78.45
2023-01-13T23:24:12.167Z,78.34
2023-01-13T23:26:42.972Z,78.33
2023-01-13T23:29:14.935Z,78.26
2023-01-13T23:31:44.311Z,78.13
2023-01-13T23:34:13.629Z,78.14
2023-01-13T23:36:43.834Z,77.95
2023-01-13T23:39:16.412Z,77.98
2023-01-13T23:41:46.828Z,77.80
2023-01-13T23:44:16.453Z,77.61
2023-01-13T23:46:45.634Z,77.96
2023-01-13T23:49:14.899Z,77.84
2023-01-13T23:51:44.112Z,77.91
2023-01-13T23:54:13.438Z,77.89
2023-01-13T23:56:42.818Z,78.05
2023-01-13T23:59:13.780Z,78.07
